Time;durP1;ratioP1;P1;durP2;ratioP2;P2;SDS_P1;SDS_P2;PMS_P1;PMS_P2;Temp;Humidity;BMP_temperature;BMP_pressure;BME280_temperature;BME280_humidity;BME280_pressure;Samples;Min_cycle;Max_cycle;Signal;HPM_P1;HPM_P2
2023/12/02 00:01:41;;;;;;;50.20;26.27;;;1.80;99.90;;;1.86;79.70;100941.75;5113473;28;20382;-72
2023/12/02 00:04:10;;;;;;;47.87;26.43;;;1.70;99.90;;;1.85;79.61;100947.81;5113622;28;20051;-72
2023/12/02 00:06:38;;;;;;;45.83;26.17;;;1.80;99.90;;;1.74;79.23;100959.63;5113340;28;20039;-72
2023/12/02 00:09:07;;;;;;;44.87;25.10;;;1.60;99.90;;;1.77;79.66;100962.31;5113568;28;20051;-72
2023/12/02 00:11:37;;;;;;;48.40;26.27;;;1.70;99.90;;;1.62;79.58;100946.19;5113250;28;20463;-72
2023/12/02 00:14:05;;;;;;;46.40;25.05;;;1.60;99.90;;;1.65;79.29;100943.69;5113315;28;20047;-72
2023/12/02 00:16:34;;;;;;;44.70;25.33;;;1.50;99.90;;;1.56;79.64;100943.38;5113120;28;20108;-72
2023/12/02 00:19:02;;;;;;;46.37;25.80;;;1.50;99.90;;;1.62;80.15;100951.41;5113227;28;20515;-73
2023/12/02 00:21:31;;;;;;;45.67;26.57;;;1.40;99.90;;;1.65;80.32;100941.06;5095261;28;20126;-72
2023/12/02 00:23:59;;;;;;;51.67;26.60;;;1.50;99.90;;;1.68;80.52;100944.66;5113189;28;20079;-73
2023/12/02 00:26:27;;;;;;;45.93;25.57;;;1.50;99.90;;;1.61;80.58;100932.28;5113161;28;20043;-72
2023/12/02 00:29:00;;;;;;;45.30;25.23;;;1.50;99.90;;;1.69;80.45;100948.16;5112978;28;20058;-73
2023/12/02 00:31:29;;;;;;;42.00;23.90;;;1.50;99.90;;;1.69;80.73;100943.84;5094717;28;20423;-72
2023/12/02 00:33:57;;;;;;;47.43;25.23;;;1.50;99.90;;;1.76;80.18;100937.09;5112713;28;20051;-72
2023/12/02 00:36:26;;;;;;;47.67;25.47;;;1.60;99.90;;;1.77;80.10;100946.69;5112623;28;20126;-72
2023/12/02 00:38:54;;;;;;;42.27;24.53;;;1.70;99.90;;;1.73;80.32;100947.41;5113188;28;20044;-72
2023/12/02 00:41:22;;;;;;;50.03;25.87;;;1.60;99.90;;;1.80;80.27;100936.38;5113192;28;20490;-72
2023/12/02 00:43:51;;;;;;;51.57;26.83;;;1.70;99.90;;;1.88;80.42;100926.19;5112562;28;20093;-72
2023/12/02 00:46:20;;;;;;;48.67;25.40;;;1.80;99.90;;;1.98;79.89;100923.88;5112516;28;20108;-72
2023/12/02 00:48:49;;;;;;;53.22;27.73;;;1.80;99.90;;;1.95;80.17;100955.09;5112458;28;20534;-72
2023/12/02 00:51:18;;;;;;;49.97;27.07;;;1.80;99.90;;;2.01;80.28;100942.25;5112423;28;20123;-72
2023/12/02 00:53:46;;;;;;;45.87;25.50;;;1.90;99.90;;;1.99;80.46;100943.91;5112970;28;20043;-72
2023/12/02 00:56:14;;;;;;;47.43;26.63;;;1.80;99.90;;;2.06;80.56;100958.91;5113231;28;20055;-72
2023/12/02 00:58:43;;;;;;;50.80;27.03;;;1.90;99.90;;;2.10;80.66;100947.72;5112992;28;20085;-72
2023/12/02 01:01:11;;;;;;;53.17;28.77;;;1.90;99.90;;;2.07;80.66;100942.41;5112705;28;20100;-71
2023/12/02 01:03:42;;;;;;;54.13;28.67;;;1.90;99.90;;;2.12;80.78;100929.50;5094668;28;20157;-73
2023/12/02 01:06:11;;;;;;;50.63;26.83;;;2.10;99.90;;;2.33;80.74;100946.69;5112656;28;20044;-72
2023/12/02 01:08:39;;;;;;;53.87;27.40;;;2.20;99.90;;;2.34;80.61;100945.84;5112909;28;20160;-73
2023/12/02 01:11:08;;;;;;;50.87;28.40;;;2.20;99.90;;;2.38;80.61;100942.50;5094707;28;20138;-72
2023/12/02 01:13:37;;;;;;;53.67;29.07;;;2.20;99.90;;;2.34;80.57;100945.84;5112572;28;20553;-73
2023/12/02 01:16:06;;;;;;;50.23;28.33;;;2.20;99.90;;;2.48;80.59;100943.63;5112774;28;20090;-74
2023/12/02 01:18:35;;;;;;;52.50;27.27;;;2.30;99.90;;;2.42;80.37;100925.22;5112560;28;20100;-73
2023/12/02 01:21:05;;;;;;;47.40;26.73;;;2.30;99.90;;;2.44;80.56;100934.84;5112480;28;20043;-72
2023/12/02 01:23:34;;;;;;;51.50;26.77;;;2.30;99.90;;;2.44;80.39;100926.16;5112565;28;20047;-73
2023/12/02 01:26:02;;;;;;;48.67;26.60;;;2.40;99.90;;;2.30;80.44;100930.97;5112663;28;20140;-72
2023/12/02 01:28:30;;;;;;;49.63;27.27;;;2.30;99.90;;;2.37;80.55;100929.41;5112784;28;20046;-73
2023/12/02 01:30:58;;;;;;;51.17;27.70;;;2.30;99.90;;;2.43;80.25;100945.25;5116353;28;20531;-73
2023/12/02 01:33:27;;;;;;;51.53;28.43;;;2.30;99.90;;;2.16;80.74;100947.94;5115938;28;20122;-72
2023/12/02 01:35:55;;;;;;;52.43;28.63;;;2.00;99.90;;;1.66;82.18;100954.19;5116198;28;20407;-72
2023/12/02 01:38:25;;;;;;;49.57;26.87;;;1.60;99.90;;;1.75;82.98;100944.03;5097817;28;20051;-72
2023/12/02 01:40:54;;;;;;;46.55;26.48;;;1.60;99.90;;;1.72;83.26;100959.56;5115890;28;20438;-72
2023/12/02 01:43:25;;;;;;;51.53;28.40;;;1.50;99.90;;;1.59;83.77;100953.91;5115781;28;20051;-72
2023/12/02 01:45:55;;;;;;;50.30;27.00;;;1.40;99.90;;;1.81;84.18;100958.97;5115716;28;20040;-72
2023/12/02 01:48:27;;;;;;;51.75;27.30;;;1.60;99.90;;;1.92;84.12;100954.97;5115724;28;20043;-72
2023/12/02 01:50:56;;;;;;;52.93;28.50;;;1.70;99.90;;;1.87;84.14;100953.06;5097698;28;20505;-73
2023/12/02 01:53:26;;;;;;;50.60;27.77;;;1.70;99.90;;;1.98;83.82;100946.47;5115681;28;20139;-72
2023/12/02 01:55:55;;;;;;;49.95;26.33;;;1.80;99.90;;;2.13;83.34;100940.00;5115682;28;20044;-72
2023/12/02 01:58:24;;;;;;;50.53;27.60;;;1.90;99.90;;;2.18;83.23;100946.25;5115608;28;20073;-72
2023/12/02 02:00:52;;;;;;;51.73;27.77;;;2.00;99.90;;;2.23;82.60;100947.25;5115600;28;20043;-72
2023/12/02 02:03:20;;;;;;;51.50;26.93;;;2.10;99.90;;;2.18;82.54;100933.22;5115746;28;20372;-73
2023/12/02 02:05:49;;;;;;;49.63;25.93;;;2.10;99.90;;;2.27;82.54;100943.00;5115453;28;20127;-72
2023/12/02 02:08:18;;;;;;;48.17;26.17;;;2.20;99.90;;;2.26;82.50;100943.88;5115392;28;20067;-72
2023/12/02 02:10:47;;;;;;;46.67;25.57;;;2.20;99.90;;;2.13;82.46;100942.59;5115869;28;20114;-73
2023/12/02 02:13:16;;;;;;;49.15;26.73;;;2.10;99.90;;;2.15;82.48;100948.75;5115509;28;20063;-72
2023/12/02 02:15:44;;;;;;;54.17;27.40;;;2.00;99.90;;;2.03;82.43;100944.91;5115203;28;20040;-73
2023/12/02 02:18:12;;;;;;;52.07;26.83;;;2.00;99.90;;;2.03;82.78;100953.63;5115119;28;20502;-72
2023/12/02 02:20:41;;;;;;;48.03;26.17;;;2.00;99.90;;;2.05;82.89;100941.50;5096736;28;20051;-72
2023/12/02 02:23:10;;;;;;;47.90;25.50;;;2.00;99.90;;;1.76;83.12;100947.53;5115040;28;20077;-73
2023/12/02 02:25:39;;;;;;;49.63;27.15;;;1.80;99.90;;;1.67;83.89;100950.72;5115160;28;20039;-73
2023/12/02 02:28:07;;;;;;;45.70;25.77;;;1.60;99.90;;;1.74;84.17;100946.59;5115190;28;20039;-73
2023/12/02 02:30:36;;;;;;;48.23;26.03;;;1.60;99.90;;;1.76;84.54;100951.00;5097256;28;20043;-73
2023/12/02 02:33:04;;;;;;;48.13;26.67;;;1.70;99.90;;;1.81;84.38;100952.06;5114891;28;20043;-72
2023/12/02 02:35:33;;;;;;;50.53;27.03;;;1.70;99.90;;;1.76;84.44;100947.53;5114948;28;20047;-72
2023/12/02 02:38:02;;;;;;;50.80;27.30;;;1.70;99.90;;;1.84;84.73;100938.22;5114911;28;20069;-73
2023/12/02 02:40:31;;;;;;;47.03;25.37;;;1.80;99.90;;;1.89;84.38;100930.53;5115092;28;20051;-73
2023/12/02 02:43:00;;;;;;;51.30;26.80;;;1.80;99.90;;;1.94;84.63;100939.38;5097082;28;20123;-72
2023/12/02 02:45:28;;;;;;;51.33;28.30;;;1.90;99.90;;;1.82;83.70;100953.81;5114835;28;20039;-72
2023/12/02 02:47:57;;;;;;;51.73;28.47;;;1.80;99.90;;;1.59;83.88;100952.19;5114834;28;20044;-73
2023/12/02 02:50:26;;;;;;;55.50;28.97;;;1.60;99.90;;;1.70;84.14;100960.38;5115034;28;20071;-72
2023/12/02 02:52:54;;;;;;;54.33;27.77;;;1.60;99.90;;;1.76;84.07;100960.56;5115347;28;20068;-72
2023/12/02 02:55:22;;;;;;;53.03;28.53;;;1.60;99.90;;;1.75;83.73;100957.06;5114691;28;20074;-72
2023/12/02 02:57:53;;;;;;;50.10;27.43;;;1.60;99.90;;;1.85;83.74;100958.25;5096455;28;20071;-72
2023/12/02 03:00:21;;;;;;;51.75;28.23;;;1.70;99.90;;;1.89;83.63;100962.72;5114866;28;20059;-72
2023/12/02 03:02:49;;;;;;;52.53;27.47;;;1.70;99.90;;;1.84;83.34;100949.53;5114682;28;20167;-72
2023/12/02 03:05:18;;;;;;;58.27;28.67;;;1.70;99.90;;;1.88;83.27;100955.72;5114267;28;20112;-72
2023/12/02 03:07:47;;;;;;;48.97;27.10;;;1.80;99.90;;;1.89;83.34;100951.41;5114322;28;20043;-72
2023/12/02 03:10:15;;;;;;;49.63;27.27;;;1.80;99.90;;;1.92;82.85;100954.97;5096090;28;20048;-72
2023/12/02 03:12:44;;;;;;;53.00;28.23;;;1.80;99.90;;;1.91;82.75;100955.84;5114293;28;20039;-72
2023/12/02 03:15:13;;;;;;;48.17;25.87;;;1.70;99.90;;;1.80;82.62;100941.59;5114257;28;20511;-72
2023/12/02 03:17:42;;;;;;;53.97;28.90;;;1.80;99.90;;;1.92;82.66;100948.91;5114264;28;20043;-72
2023/12/02 03:20:12;;;;;;;53.43;28.27;;;1.70;99.90;;;1.91;82.48;100952.34;5114201;28;20047;-72
2023/12/02 03:22:40;;;;;;;49.97;26.70;;;1.70;99.90;;;1.91;82.75;100949.72;5114194;28;20048;-72
2023/12/02 03:25:09;;;;;;;51.77;28.23;;;1.70;99.90;;;1.91;82.95;100948.00;5114152;28;20508;-72
2023/12/02 03:27:37;;;;;;;49.13;25.80;;;1.70;99.90;;;1.89;82.56;100949.69;5114094;28;20086;-73
2023/12/02 03:30:07;;;;;;;53.63;28.47;;;1.70;99.90;;;1.80;82.75;100945.06;5114085;28;20067;-72
2023/12/02 03:32:39;;;;;;;;;;;1.70;99.90;;;1.83;82.73;100953.00;5114709;28;20057;-72
2023/12/02 03:35:08;;;;;;;48.70;26.60;;;1.70;99.90;;;1.85;82.88;100942.59;5096020;28;20291;-72
2023/12/02 03:37:38;;;;;;;51.47;27.23;;;1.70;99.90;;;1.58;83.04;100947.81;5113882;28;20100;-73
2023/12/02 03:40:08;;;;;;;51.15;26.52;;;1.50;99.90;;;1.17;84.54;100950.75;5113872;28;20126;-72
2023/12/02 03:42:37;;;;;;;51.90;28.45;;;1.10;99.90;;;-0.10;85.22;100777.09;5113854;28;20127;-72
2023/12/02 03:45:07;;;;;;;51.40;27.47;;;0.80;99.90;;;1.14;85.82;100955.00;5114078;28;20100;-72
2023/12/02 03:47:35;;;;;;;53.03;27.27;;;0.90;99.90;;;1.23;85.72;100947.47;5114255;28;20051;-73
2023/12/02 03:50:07;;;;;;;52.83;28.87;;;1.00;99.90;;;1.24;85.24;100957.94;5113925;28;20097;-72
2023/12/02 03:52:35;;;;;;;55.70;28.93;;;1.00;99.90;;;1.27;85.49;100960.66;5113303;28;20035;-72
2023/12/02 03:55:04;;;;;;;51.63;27.60;;;1.10;99.90;;;1.30;85.86;100949.44;5113451;28;20032;-72
2023/12/02 03:57:32;;;;;;;56.10;29.13;;;1.10;99.90;;;1.33;85.50;100952.16;5113366;28;20381;-72
2023/12/02 04:00:01;;;;;;;53.27;28.57;;;1.20;99.90;;;1.42;85.79;100961.19;5113631;28;20055;-72
2023/12/02 04:02:32;;;;;;;56.07;29.07;;;1.30;99.90;;;1.42;85.20;100952.47;5113219;28;20061;-72
2023/12/02 04:05:00;;;;;;;60.07;29.77;;;1.30;99.90;;;1.46;85.28;100962.16;5113439;28;20040;-72
2023/12/02 04:07:30;;;;;;;53.40;28.03;;;1.30;99.90;;;1.59;85.31;100965.22;5113123;28;20044;-72
2023/12/02 04:09:58;;;;;;;56.17;28.60;;;1.40;99.90;;;1.68;85.13;100962.91;5113050;28;20132;-73
2023/12/02 04:12:27;;;;;;;55.47;29.03;;;1.60;99.90;;;1.70;84.86;100960.38;5113082;28;20051;-72
2023/12/02 04:14:55;;;;;;;58.70;31.10;;;1.60;99.90;;;1.80;84.59;100968.50;5112902;28;20530;-72
2023/12/02 04:17:26;;;;;;;58.63;30.43;;;1.70;99.90;;;1.65;84.67;100959.31;5112946;28;20059;-72
2023/12/02 04:19:54;;;;;;;56.00;30.37;;;1.60;99.90;;;1.76;84.45;100971.00;5112909;28;20515;-72
2023/12/02 04:22:24;;;;;;;51.07;27.37;;;1.60;99.90;;;1.67;83.95;100973.28;5112814;28;20040;-72
2023/12/02 04:24:54;;;;;;;58.47;29.48;;;1.50;99.90;;;1.62;84.15;100970.56;5113311;28;20043;-72
2023/12/02 04:27:22;;;;;;;55.38;28.67;;;1.50;99.90;;;1.53;84.05;100982.41;5112755;28;20492;-72
2023/12/02 04:29:51;;;;;;;59.07;30.80;;;1.40;99.90;;;1.48;84.50;100981.34;5094558;28;20036;-73
2023/12/02 04:32:19;;;;;;;57.47;29.70;;;1.40;99.90;;;1.49;84.75;100983.13;5094778;28;20039;-72
2023/12/02 04:34:48;;;;;;;54.87;30.07;;;1.40;99.90;;;1.51;85.12;100989.28;5112769;28;20067;-72
2023/12/02 04:37:17;;;;;;;54.57;28.77;;;1.40;99.90;;;1.55;85.00;100999.81;5112717;28;20130;-72
2023/12/02 04:39:45;;;;;;;52.90;29.07;;;1.50;99.90;;;1.49;84.97;100998.75;5094770;28;20553;-72
2023/12/02 04:42:15;;;;;;;52.70;28.13;;;1.40;99.90;;;1.35;84.98;100994.78;5112867;28;20470;-72
2023/12/02 04:44:43;;;;;;;53.75;28.65;;;1.30;99.90;;;1.31;85.29;100990.31;5112792;28;20048;-72
2023/12/02 04:47:12;;;;;;;57.67;28.93;;;1.20;99.90;;;1.30;85.61;100985.91;5094407;28;20050;-72
2023/12/02 04:49:41;;;;;;;59.43;30.93;;;1.20;99.90;;;1.31;85.73;100986.00;5112504;28;20055;-72
2023/12/02 04:52:10;;;;;;;57.17;30.52;;;1.20;99.90;;;1.37;86.29;100993.13;5112862;28;20043;-72
2023/12/02 04:54:38;;;;;;;56.90;29.13;;;1.30;99.90;;;1.38;86.24;100997.50;5112643;28;20058;-73
2023/12/02 04:57:07;;;;;;;57.80;29.93;;;1.30;99.90;;;1.42;86.11;101001.97;5112598;28;20049;-72
2023/12/02 04:59:37;;;;;;;58.33;30.40;;;1.30;99.90;;;1.42;86.49;101001.97;5112861;28;20035;-72
2023/12/02 05:02:05;;;;;;;56.55;29.50;;;1.40;99.90;;;1.50;86.65;101000.50;5112579;28;20055;-72
2023/12/02 05:04:34;;;;;;;59.90;31.07;;;1.40;99.90;;;1.72;86.35;101003.00;5114677;28;20130;-73
2023/12/02 05:07:02;;;;;;;56.40;29.10;;;1.60;99.90;;;1.80;85.91;100999.81;5117127;28;20437;-73
2023/12/02 05:09:31;;;;;;;59.50;29.90;;;1.70;99.90;;;1.91;85.26;101010.59;5117092;28;20044;-73
2023/12/02 05:11:59;;;;;;;57.90;30.67;;;1.80;99.90;;;1.97;85.05;101010.78;5098694;28;20052;-72
2023/12/02 05:14:28;;;;;;;56.43;31.27;;;1.90;99.90;;;1.99;84.99;101016.06;5098634;28;20067;-73
2023/12/02 05:16:57;;;;;;;56.97;29.00;;;1.90;99.90;;;1.85;84.61;101010.38;5116654;28;20450;-72
2023/12/02 05:19:26;;;;;;;55.92;30.05;;;1.90;99.90;;;1.86;84.58;101012.16;5116641;28;20032;-72
2023/12/02 05:21:54;;;;;;;56.47;29.57;;;1.90;99.90;;;1.87;84.90;101013.03;5116566;28;20050;-73
2023/12/02 05:24:22;;;;;;;55.67;30.50;;;1.80;99.90;;;1.94;84.76;101015.00;5116584;28;20065;-73
2023/12/02 05:26:54;;;;;;;59.23;30.00;;;1.80;99.90;;;1.94;84.51;101020.22;5116544;28;20050;-73
2023/12/02 05:29:22;;;;;;;58.70;29.80;;;1.90;99.90;;;1.90;84.70;101020.97;5116836;28;20043;-72
2023/12/02 05:32:17;;;;;;;52.83;29.63;;;1.80;99.90;;;1.94;84.71;101031.53;5098277;28;20047;-73
2023/12/02 05:34:45;;;;;;;60.87;29.80;;;1.90;99.90;;;1.07;84.43;100877.47;5116510;28;20442;-73
2023/12/02 05:37:14;;;;;;;56.53;30.20;;;1.80;99.90;;;1.90;84.21;101034.03;5116705;28;20040;-73
2023/12/02 05:39:42;;;;;;;56.47;30.20;;;1.80;99.90;;;1.96;84.17;101032.47;5116222;28;20047;-73
2023/12/02 05:42:12;;;;;;;57.93;30.27;;;1.80;99.90;;;1.91;83.98;101041.88;5116503;28;20048;-73
2023/12/02 05:44:42;;;;;;;54.50;28.95;;;1.80;99.90;;;1.87;84.01;101045.22;5117107;28;20052;-72
2023/12/02 05:47:10;;;;;;;55.28;30.50;;;1.70;99.90;;;1.83;84.13;101048.56;5115990;28;20496;-73
2023/12/02 05:49:42;;;;;;;55.30;29.33;;;1.70;99.90;;;1.89;84.46;101050.47;5097790;28;20035;-73
2023/12/02 05:52:10;;;;;;;60.60;30.53;;;1.70;99.90;;;1.85;84.39;101054.72;5116073;28;20039;-72
2023/12/02 05:54:39;;;;;;;61.03;31.83;;;1.70;99.90;;;1.87;84.46;101045.22;5115911;28;20052;-73
2023/12/02 05:57:07;;;;;;;58.00;29.87;;;1.70;99.90;;;2.05;84.09;101056.28;5116049;28;20117;-73
2023/12/02 05:59:36;;;;;;;58.60;30.77;;;1.90;99.90;;;2.14;83.50;101053.06;5115767;28;20070;-73
2023/12/02 06:02:04;;;;;;;60.37;32.43;;;2.00;99.90;;;2.15;83.28;101053.09;5115237;28;20062;-72
2023/12/02 06:04:33;;;;;;;61.70;31.97;;;2.10;99.90;;;2.10;83.23;101049.47;5114809;28;20073;-72
2023/12/02 06:07:03;;;;;;;59.13;31.73;;;2.00;99.90;;;2.09;83.02;101037.25;5114751;28;20043;-71
2023/12/02 06:09:31;;;;;;;58.72;31.70;;;2.00;99.90;;;2.18;82.88;101049.72;5114797;28;20085;-72
2023/12/02 06:11:59;;;;;;;59.03;31.30;;;2.10;99.90;;;2.25;82.65;101054.28;5114402;28;20039;-72
2023/12/02 06:14:28;;;;;;;58.47;30.53;;;2.10;99.90;;;2.26;82.55;101056.94;5113985;28;20040;-72
2023/12/02 06:17:00;;;;;;;57.10;30.23;;;2.20;99.90;;;2.23;82.27;101056.84;5095856;28;20047;-72
2023/12/02 06:19:29;;;;;;;58.70;30.70;;;2.10;99.90;;;2.22;81.96;101075.06;5114162;28;20071;-72
2023/12/02 06:21:56;;;;;;;62.03;31.67;;;2.20;99.90;;;2.24;82.44;101058.63;5114134;28;20036;-73
2023/12/02 06:24:26;;;;;;;60.50;30.93;;;2.10;99.90;;;2.25;82.33;101060.38;5114747;28;20127;-73
2023/12/02 06:26:55;;;;;;;60.30;31.63;;;2.10;99.90;;;2.28;82.42;101059.59;5114128;28;20047;-73
2023/12/02 06:29:24;;;;;;;57.53;31.10;;;2.10;99.90;;;2.26;82.31;101064.78;5114160;28;20043;-72
2023/12/02 06:31:53;;;;;;;56.83;30.00;;;2.20;99.90;;;2.21;82.46;101066.34;5114166;28;20077;-72
2023/12/02 06:34:22;;;;;;;54.85;30.35;;;2.20;99.90;;;1.69;82.91;101070.66;5114147;28;20065;-72
2023/12/02 06:36:50;;;;;;;56.87;29.30;;;1.70;99.90;;;1.76;83.62;101070.94;5113745;28;20484;-72
2023/12/02 06:39:18;;;;;;;58.87;31.30;;;1.70;99.90;;;1.77;83.73;101067.50;5114083;28;20109;-72
2023/12/02 06:41:48;;;;;;;57.90;31.07;;;1.70;99.90;;;1.80;83.63;101074.56;5113544;28;20062;-72
2023/12/02 06:44:17;;;;;;;60.97;32.38;;;1.70;99.90;;;1.78;83.76;101078.81;5114129;28;20092;-72
2023/12/02 06:46:46;;;;;;;57.23;30.40;;;1.60;99.90;;;1.82;83.93;101080.66;5095486;28;20093;-72
2023/12/02 06:49:14;;;;;;;64.13;31.00;;;1.70;99.90;;;1.92;83.45;101090.59;5113597;28;20441;-72
2023/12/02 06:51:44;;;;;;;62.87;31.67;;;1.80;99.90;;;1.94;83.54;101081.09;5113949;28;20077;-72
2023/12/02 06:54:12;;;;;;;60.58;30.90;;;1.80;99.90;;;2.03;83.74;101097.06;5113597;28;20047;-72
2023/12/02 06:56:41;;;;;;;59.30;30.87;;;1.90;99.90;;;2.04;83.52;101096.22;5114274;28;20408;-72
2023/12/02 06:59:10;;;;;;;62.50;33.20;;;1.90;99.90;;;2.04;83.29;101101.44;5114180;28;20130;-72
2023/12/02 07:01:40;;;;;;;61.03;32.75;;;1.90;99.90;;;1.89;83.42;101100.94;5075302;28;1090810;-72
2023/12/02 07:04:08;;;;;;;58.67;30.93;;;1.80;99.90;;;1.76;83.42;101106.56;5114691;28;20036;-72
2023/12/02 07:06:39;;;;;;;62.43;31.73;;;1.70;99.90;;;1.71;83.54;101106.41;5114399;28;20040;-72
2023/12/02 07:09:10;;;;;;;59.40;31.50;;;1.60;99.90;;;1.65;83.91;101113.09;5114732;28;20040;-72
2023/12/02 07:11:38;;;;;;;58.33;31.42;;;1.50;99.90;;;0.70;83.77;100951.69;5114838;28;20452;-70
2023/12/02 07:14:06;;;;;;;60.47;32.00;;;1.50;99.90;;;1.63;84.21;101112.16;5114603;28;20369;-70
2023/12/02 07:16:36;;;;;;;56.97;31.53;;;1.50;99.90;;;1.60;84.32;101106.84;5095949;28;20458;-71
2023/12/02 07:19:04;;;;;;;60.30;31.50;;;1.50;99.90;;;1.69;84.40;101120.19;5114073;28;20055;-70
2023/12/02 07:21:33;;;;;;;64.87;32.93;;;1.50;99.90;;;1.66;84.33;101122.72;5114769;28;20066;-70
2023/12/02 07:24:02;;;;;;;70.40;32.63;;;1.60;99.90;;;1.53;84.57;101125.72;5113924;28;20066;-64
2023/12/02 07:26:30;;;;;;;64.80;32.17;;;1.50;99.90;;;1.49;84.67;101129.06;5095077;28;20096;-65
2023/12/02 07:28:59;;;;;;;66.80;33.47;;;1.50;99.90;;;1.49;84.86;101129.91;5113874;28;20032;-64
2023/12/02 07:31:27;;;;;;;67.27;34.13;;;1.50;99.90;;;1.35;85.60;101135.47;5113808;28;20092;-64
2023/12/02 07:33:57;;;;;;;64.77;33.87;;;1.30;99.90;;;1.23;86.60;101140.22;5113918;28;20073;-64
2023/12/02 07:36:25;;;;;;;68.57;33.92;;;1.20;99.90;;;1.32;87.21;101145.75;5095495;28;20047;-68
2023/12/02 07:38:53;;;;;;;69.53;35.53;;;1.20;99.90;;;1.39;87.27;101139.97;5113585;28;20070;-80
2023/12/02 07:41:22;;;;;;;67.77;32.93;;;1.30;99.90;;;1.36;87.12;101152.88;5113877;28;20123;-71
2023/12/02 07:43:51;;;;;;;67.40;33.87;;;1.30;99.90;;;1.35;87.17;101156.31;5113522;28;20039;-70
2023/12/02 07:46:20;;;;;;;79.05;36.13;;;1.30;99.90;;;1.25;87.75;101149.88;5113498;28;20047;-68
2023/12/02 07:48:48;;;;;;;73.17;35.50;;;1.30;99.90;;;1.01;88.44;101077.78;5113691;28;20105;-70
2023/12/02 07:51:18;;;;;;;69.27;35.30;;;1.30;99.90;;;1.43;89.43;101134.03;5113601;28;20040;-70
2023/12/02 07:53:46;;;;;;;;;;;1.40;99.90;;;1.60;89.70;101148.56;5113764;28;20044;-70
2023/12/02 07:56:17;;;;;;;70.53;35.10;;;1.50;99.90;;;1.84;89.37;101159.84;5113093;28;19925;-71
2023/12/02 07:58:46;;;;;;;67.13;34.10;;;1.80;99.90;;;2.03;89.31;101153.56;5113100;28;20039;-71
2023/12/02 08:01:14;;;;;;;66.60;33.20;;;1.90;99.90;;;2.19;88.92;101153.25;5113291;28;20048;-71
2023/12/02 08:03:42;;;;;;;71.20;33.73;;;2.10;99.90;;;2.46;88.20;101160.22;5112896;28;20062;-76
2023/12/02 08:06:11;;;;;;;74.43;36.03;;;2.40;99.90;;;2.47;87.59;101161.13;5113169;28;20036;-67
2023/12/02 08:08:41;;;;;;;66.93;35.23;;;2.50;99.90;;;2.76;86.73;101165.56;5113351;28;20100;-65
2023/12/02 08:11:09;;;;;;;70.07;35.47;;;2.60;99.90;;;3.05;86.44;101174.28;5113275;28;20043;-69
2023/12/02 08:13:38;;;;;;;69.50;35.10;;;2.90;99.90;;;3.34;85.28;101178.66;5112916;28;20123;-69
2023/12/02 08:16:07;;;;;;;67.77;34.40;;;3.20;99.90;;;3.58;84.26;101179.38;5113289;28;20058;-69
2023/12/02 08:18:36;;;;;;;65.28;33.70;;;3.50;99.90;;;3.88;83.16;101181.94;5112984;28;20434;-68
2023/12/02 08:21:06;;;;;;;70.37;35.90;;;3.80;99.90;;;4.15;82.58;101182.69;5113109;28;20495;-68
2023/12/02 08:23:34;;;;;;;66.13;35.13;;;4.10;99.90;;;4.42;81.11;101186.00;5112984;28;20066;-68
2023/12/02 08:26:04;;;;;;;72.20;37.37;;;4.30;99.90;;;4.68;80.09;101184.94;5113029;28;20439;-68
2023/12/02 08:28:33;;;;;;;70.75;37.88;;;4.60;99.90;;;4.91;79.24;101194.22;5112756;28;20483;-68
2023/12/02 08:31:01;;;;;;;65.90;35.77;;;4.90;99.90;;;5.12;78.23;101194.72;5112867;28;20492;-69
2023/12/02 08:33:29;;;;;;;65.33;34.60;;;5.10;99.90;;;5.34;77.31;101206.56;5113343;28;20469;-69
2023/12/02 08:35:58;;;;;;;65.53;34.77;;;5.30;99.90;;;5.50;76.00;101208.66;5112264;28;20142;-69
2023/12/02 08:38:27;;;;;;;62.33;33.40;;;5.50;99.90;;;5.68;75.16;101213.41;5112966;28;20070;-69
2023/12/02 08:40:55;;;;;;;60.92;33.42;;;5.70;99.90;;;5.85;74.43;101202.44;5112742;28;20498;-69
2023/12/02 08:43:25;;;;;;;61.17;32.53;;;5.90;99.90;;;6.08;73.82;101214.25;5112790;28;20054;-69
2023/12/02 08:45:54;;;;;;;59.70;32.65;;;6.10;99.90;;;6.18;73.05;101215.31;5112699;28;20112;-69
2023/12/02 08:48:23;;;;;;;58.42;32.25;;;6.30;99.90;;;6.34;72.25;101214.75;5112673;28;20385;-69
2023/12/02 08:50:51;;;;;;;59.08;32.38;;;6.30;99.90;;;6.45;71.59;101220.16;5112589;28;20496;-69
2023/12/02 08:53:20;;;;;;;58.88;32.50;;;6.50;99.90;;;6.42;71.09;101207.88;5113034;28;20039;-69
2023/12/02 08:55:48;;;;;;;56.60;31.95;;;6.60;99.90;;;6.88;70.92;101220.03;5112490;28;20450;-69
2023/12/02 08:58:16;;;;;;;57.53;32.88;;;6.80;99.90;;;7.05;70.26;101223.81;5112789;28;20039;-69
2023/12/02 09:00:46;;;;;;;58.13;32.35;;;7.00;99.90;;;7.23;69.68;101224.09;5112928;28;20040;-70
2023/12/02 09:03:18;;;;;;;54.75;31.83;;;7.20;99.90;;;7.26;68.57;101224.13;5112281;28;20068;-70
2023/12/02 09:05:47;;;;;;;56.22;31.45;;;7.30;99.90;;;7.03;67.61;101236.94;5112483;28;20430;-70
2023/12/02 09:08:15;;;;;;;55.75;31.00;;;7.00;99.90;;;6.96;67.61;101228.94;5112463;28;20382;-70
2023/12/02 09:10:44;;;;;;;56.75;31.35;;;6.90;99.90;;;6.93;67.75;101239.44;5112641;28;20039;-70
2023/12/02 09:13:25;;;;;;;62.75;32.42;;;6.80;99.90;;;6.98;68.37;101236.00;5112606;28;20048;-70
2023/12/02 09:15:54;;;;;;;58.55;33.85;;;6.90;99.90;;;7.14;68.53;101242.41;5112168;28;20040;-70
2023/12/02 09:18:31;;;;;;;55.63;32.75;;;7.00;99.90;;;7.37;69.29;101242.72;5113114;28;20035;-70
2023/12/02 09:21:00;;;;;;;59.70;32.88;;;7.30;99.90;;;7.42;68.08;101252.44;5094294;28;20093;-70
2023/12/02 09:23:29;;;;;;;58.63;32.60;;;7.40;99.90;;;7.32;67.82;101254.06;5112786;28;20039;-71
2023/12/02 09:26:01;;;;;;;58.80;32.65;;;7.30;99.90;;;7.18;68.01;101247.69;5112097;28;20043;-70
2023/12/02 09:28:30;;;;;;;58.75;32.78;;;7.10;99.90;;;7.06;68.06;101247.53;5112152;28;20050;-70
2023/12/02 09:31:05;;;;;;;59.55;32.90;;;7.00;99.90;;;6.43;68.32;101148.34;5111900;28;20035;-70
2023/12/02 09:33:39;;;;;;;58.15;32.40;;;7.00;99.90;;;7.01;69.38;101237.78;5112519;28;20058;-70
2023/12/02 09:36:27;;;;;;;56.72;31.58;;;7.00;99.90;;;7.27;70.26;101255.75;5112048;28;20036;-70
2023/12/02 09:38:57;;;;;;;53.05;30.95;;;7.10;99.90;;;7.23;69.67;101261.84;5112577;28;20392;-70
2023/12/02 09:41:34;;;;;;;54.25;31.80;;;7.10;99.90;;;6.97;69.59;101263.16;5112072;28;20044;-70
2023/12/02 09:44:23;;;;;;;54.25;31.70;;;6.90;99.90;;;6.84;69.76;101261.19;5112115;28;20043;-70
2023/12/02 09:47:05;;;;;;;55.35;32.28;;;6.70;99.90;;;7.08;70.38;101268.59;5111991;28;20047;-71
2023/12/02 09:50:06;;;;;;;57.20;31.75;;;6.80;99.90;;;7.56;70.78;101269.31;5113056;28;20043;-70
2023/12/02 09:52:51;;;;;;;56.63;31.80;;;7.30;99.90;;;7.92;70.77;101282.97;5116005;28;20066;-71
2023/12/02 09:55:30;;;;;;;58.42;32.60;;;7.80;99.90;;;8.15;70.08;101264.81;5115782;28;20118;-71
2023/12/02 09:58:17;;;;;;;54.22;32.78;;;8.10;99.90;;;8.50;68.81;101275.75;5115776;28;20059;-71
2023/12/02 10:00:51;;;;;;;55.95;31.95;;;8.40;99.90;;;8.75;68.01;101272.53;5115894;28;20039;-72
2023/12/02 10:03:46;;;;;;;55.30;31.48;;;8.70;99.90;;;8.95;67.72;101270.94;5115773;28;20066;-71
2023/12/02 10:06:32;;;;;;;53.35;31.98;;;8.80;99.90;;;9.26;66.88;101272.06;5115783;28;20085;-71
2023/12/02 10:09:10;;;;;;;48.67;29.85;;;9.10;99.90;;;9.47;66.32;101270.47;5115441;28;20059;-71
2023/12/02 10:11:46;;;;;;;51.03;30.33;;;9.40;99.90;;;9.65;65.91;101278.50;5115219;28;20113;-71
2023/12/02 10:14:19;;;;;;;51.00;30.38;;;9.50;99.90;;;9.85;65.46;101279.47;5115366;28;20039;-71
2023/12/02 10:16:54;;;;;;;50.15;30.50;;;9.70;99.90;;;10.04;64.88;101278.69;5115252;28;20068;-71
2023/12/02 10:19:31;;;;;;;46.90;29.48;;;9.90;99.90;;;10.17;64.43;101281.41;5115453;28;20063;-71
2023/12/02 10:22:03;;;;;;;49.88;29.88;;;10.00;99.90;;;10.30;64.60;101277.97;5115406;28;20404;-71
2023/12/02 10:24:41;;;;;;;50.90;29.42;;;10.20;99.90;;;10.27;63.84;101252.38;5115432;28;20046;-71